Station Historical Data
Daily Summary for February 21, 2017 Units:  Both    English   Metric
« Previous Day
Next Day »
Daily Weekly Monthly Yearly Custom
  High: Low: Average:
Temperature: 60.3 °F /  15.7 °C 30.7 °F /  -0.7 °C 44.6 °F /  7 °C
Dew Point: 43.0 °F /  6.1 °C 19.6 °F /  -6.9 °C 32.4 °F /  0.2 °C
Humidity: 88% 40% 64%
Wind Speed: 9.0mph /  14.5km/h - 2.3mph /  3.7km/h
Wind Gust: 15.0mph /  24.1km/h - -
Wind- - South
Pressure: 30.25 in /  1024.3 hPa 29.92 in /  1013.1 hPa -
Precipitation: 0.00 in /  0 mm    
Historical Graphs
 
 
Tabular Data for February 21, 2017
Time Temperature Dew Point Pressure Wind Wind Speed Wind Gust Humidity Rainfall Rate (Hourly)
00:04 30.8 °F /  -0.7 °C 19.7 °F /  -6.8 °C 30.25in /  1024.3hPa ENE 4.0mph /  6.4km/h 10.0mph /  16.1km/h 63% 0.00in /  0mm
00:09 30.9 °F /  -0.6 °C 19.8 °F /  -6.8 °C 30.25in /  1024.3hPa ENE 4.0mph /  6.4km/h 10.0mph /  16.1km/h 63% 0.00in /  0mm
00:14 30.9 °F /  -0.6 °C 19.8 °F /  -6.8 °C 30.25in /  1024.3hPa ENE 4.0mph /  6.4km/h 9.0mph /  14.5km/h 63% 0.00in /  0mm
00:19 30.9 °F /  -0.6 °C 19.8 °F /  -6.8 °C 30.25in /  1024.3hPa ENE 3.0mph /  4.8km/h 7.0mph /  11.3km/h 63% 0.00in /  0mm
00:24 30.9 °F /  -0.6 °C 19.8 °F /  -6.8 °C 30.25in /  1024.3hPa NE 2.0mph /  3.2km/h 7.0mph /  11.3km/h 63% 0.00in /  0mm
00:29 30.9 °F /  -0.6 °C 19.8 °F /  -6.8 °C 30.25in /  1024.3hPa NE 2.0mph /  3.2km/h 5.0mph /  8km/h 63% 0.00in /  0mm
00:34 30.8 °F /  -0.7 °C 19.7 °F /  -6.8 °C 30.25in /  1024.3hPa ENE 2.0mph /  3.2km/h 6.0mph /  9.7km/h 63% 0.00in /  0mm
00:39 30.8 °F /  -0.7 °C 19.7 °F /  -6.8 °C 30.24in /  1023.9hPa ENE 3.0mph /  4.8km/h 9.0mph /  14.5km/h 63% 0.00in /  0mm
00:44 30.7 °F /  -0.7 °C 19.6 °F /  -6.9 °C 30.24in /  1023.9hPa ENE 3.0mph /  4.8km/h 9.0mph /  14.5km/h 63% 0.00in /  0mm
00:49 30.7 °F /  -0.7 °C 20.0 °F /  -6.7 °C 30.23in /  1023.6hPa ENE 3.0mph /  4.8km/h 8.0mph /  12.9km/h 64% 0.00in /  0mm
00:54 31.0 °F /  -0.6 °C 20.2 °F /  -6.6 °C 30.23in /  1023.6hPa ENE 2.0mph /  3.2km/h 9.0mph /  14.5km/h 64% 0.00in /  0mm
00:59 31.0 °F /  -0.6 °C 19.9 °F /  -6.7 °C 30.23in /  1023.6hPa NE 1.0mph /  1.6km/h 5.0mph /  8km/h 63% 0.00in /  0mm
01:04 30.9 °F /  -0.6 °C 20.1 °F /  -6.6 °C 30.23in /  1023.6hPa NE 1.0mph /  1.6km/h 5.0mph /  8km/h 64% 0.00in /  0mm
01:09 31.0 °F /  -0.6 °C 20.2 °F /  -6.6 °C 30.23in /  1023.6hPa ENE 2.0mph /  3.2km/h 6.0mph /  9.7km/h 64% 0.00in /  0mm
01:14 31.1 °F /  -0.5 °C 20.3 °F /  -6.5 °C 30.23in /  1023.6hPa ENE 2.0mph /  3.2km/h 6.0mph /  9.7km/h 64% 0.00in /  0mm
01:19 31.1 °F /  -0.5 °C 20.3 °F /  -6.5 °C 30.22in /  1023.2hPa ENE 2.0mph /  3.2km/h 5.0mph /  8km/h 64% 0.00in /  0mm
01:24 31.1 °F /  -0.5 °C 20.7 °F /  -6.3 °C 30.22in /  1023.2hPa ENE 2.0mph /  3.2km/h 4.0mph /  6.4km/h 65% 0.00in /  0mm
01:29 31.1 °F /  -0.5 °C 20.7 °F /  -6.3 °C 30.22in /  1023.2hPa NE 2.0mph /  3.2km/h 5.0mph /  8km/h 65% 0.00in /  0mm
01:34 31.3 °F /  -0.4 °C 20.9 °F /  -6.2 °C 30.22in /  1023.2hPa NE 4.0mph /  6.4km/h 5.0mph /  8km/h 65% 0.00in /  0mm
01:39 31.4 °F /  -0.3 °C 21.0 °F /  -6.1 °C 30.22in /  1023.2hPa NE 3.0mph /  4.8km/h 5.0mph /  8km/h 65% 0.00in /  0mm
01:44 31.4 °F /  -0.3 °C 21.0 °F /  -6.1 °C 30.22in /  1023.2hPa NE 3.0mph /  4.8km/h 7.0mph /  11.3km/h 65% 0.00in /  0mm
01:49 31.4 °F /  -0.3 °C 21.0 °F /  -6.1 °C 30.21in /  1022.9hPa NE 3.0mph /  4.8km/h 7.0mph /  11.3km/h 65% 0.00in /  0mm
01:54 31.4 °F /  -0.3 °C 21.3 °F /  -5.9 °C 30.21in /  1022.9hPa ENE 2.0mph /  3.2km/h 6.0mph /  9.7km/h 66% 0.00in /  0mm
01:59 31.6 °F /  -0.2 °C 21.5 °F /  -5.8 °C 30.21in /  1022.9hPa NE 2.0mph /  3.2km/h 5.0mph /  8km/h 66% 0.00in /  0mm
02:04 31.7 °F /  -0.2 °C 21.6 °F /  -5.8 °C 30.20in /  1022.6hPa NE 3.0mph /  4.8km/h 5.0mph /  8km/h 66% 0.00in /  0mm
02:09 31.7 °F /  -0.2 °C 21.6 °F /  -5.8 °C 30.20in /  1022.6hPa NE 3.0mph /  4.8km/h 6.0mph /  9.7km/h 66% 0.00in /  0mm
02:14 31.8 °F /  -0.1 °C 21.7 °F /  -5.7 °C 30.20in /  1022.6hPa NE 2.0mph /  3.2km/h 6.0mph /  9.7km/h 66% 0.00in /  0mm
02:19 31.9 °F /  -0.1 °C 21.8 °F /  -5.7 °C 30.20in /  1022.6hPa NE 2.0mph /  3.2km/h 4.0mph /  6.4km/h 66% 0.00in /  0mm
02:24 31.8 °F /  -0.1 °C 21.7 °F /  -5.7 °C 30.20in /  1022.6hPa NE 1.0mph /  1.6km/h 4.0mph /  6.4km/h 66% 0.00in /  0mm
02:29 31.9 °F /  -0.1 °C 21.8 °F /  -5.7 °C 30.19in /  1022.2hPa NE 3.0mph /  4.8km/h 4.0mph /  6.4km/h 66% 0.00in /  0mm
02:34 31.9 °F /  -0.1 °C 22.2 °F /  -5.4 °C 30.19in /  1022.2hPa NE 2.0mph /  3.2km/h 3.0mph /  4.8km/h 67% 0.00in /  0mm
02:39 32.0 °F /  0 °C 21.9 °F /  -5.6 °C 30.19in /  1022.2hPa ENE 2.0mph /  3.2km/h 4.0mph /  6.4km/h 66% 0.00in /  0mm
02:44 32.2 °F /  0.1 °C 22.1 °F /  -5.5 °C 30.19in /  1022.2hPa ENE 2.0mph /  3.2km/h 4.0mph /  6.4km/h 66% 0.00in /  0mm
02:49 32.4 °F /  0.2 °C 22.3 °F /  -5.4 °C 30.19in /  1022.2hPa ENE 2.0mph /  3.2km/h 4.0mph /  6.4km/h 66% 0.00in /  0mm
02:54 32.4 °F /  0.2 °C 22.3 °F /  -5.4 °C 30.19in /  1022.2hPa ENE 2.0mph /  3.2km/h 5.0mph /  8km/h 66% 0.00in /  0mm
02:59 32.5 °F /  0.3 °C 22.4 °F /  -5.3 °C 30.18in /  1021.9hPa ENE 2.0mph /  3.2km/h 5.0mph /  8km/h 66% 0.00in /  0mm
03:04 32.5 °F /  0.3 °C 22.4 °F /  -5.3 °C 30.18in /  1021.9hPa ENE 2.0mph /  3.2km/h 5.0mph /  8km/h 66% 0.00in /  0mm
03:09 32.6 °F /  0.3 °C 22.5 °F /  -5.3 °C 30.18in /  1021.9hPa ENE 1.0mph /  1.6km/h 3.0mph /  4.8km/h 66% 0.00in /  0mm
03:14 32.6 °F /  0.3 °C 22.5 °F /  -5.3 °C 30.17in /  1021.6hPa ENE 3.0mph /  4.8km/h 5.0mph /  8km/h 66% 0.00in /  0mm
03:19 32.7 °F /  0.4 °C 22.6 °F /  -5.2 °C 30.17in /  1021.6hPa NE 3.0mph /  4.8km/h 4.0mph /  6.4km/h 66% 0.00in /  0mm
03:24 32.7 °F /  0.4 °C 22.6 °F /  -5.2 °C 30.16in /  1021.2hPa ENE 2.0mph /  3.2km/h 5.0mph /  8km/h 66% 0.00in /  0mm
03:29 33.0 °F /  0.6 °C 22.9 °F /  -5.1 °C 30.16in /  1021.2hPa NE 2.0mph /  3.2km/h 5.0mph /  8km/h 66% 0.00in /  0mm
03:34 33.0 °F /  0.6 °C 22.9 °F /  -5.1 °C 30.17in /  1021.6hPa Calm   3.0mph /  4.8km/h 66% 0.00in /  0mm
03:39 33.1 °F /  0.6 °C 23.0 °F /  -5 °C 30.17in /  1021.6hPa Calm     66% 0.00in /  0mm
03:44 33.0 °F /  0.6 °C 23.2 °F /  -4.9 °C 30.17in /  1021.6hPa Calm     67% 0.00in /  0mm
03:49 32.8 °F /  0.4 °C 23.0 °F /  -5 °C 30.17in /  1021.6hPa Calm     67% 0.00in /  0mm
03:54 32.7 °F /  0.4 °C 22.9 °F /  -5.1 °C 30.17in /  1021.6hPa Calm     67% 0.00in /  0mm
03:59 32.4 °F /  0.2 °C 23.0 °F /  -5 °C 30.16in /  1021.2hPa Calm     68% 0.00in /  0mm
04:04 32.6 °F /  0.3 °C 23.2 °F /  -4.9 °C 30.16in /  1021.2hPa Calm     68% 0.00in /  0mm
04:09 32.7 °F /  0.4 °C 23.3 °F /  -4.8 °C 30.16in /  1021.2hPa Calm     68% 0.00in /  0mm
04:14 32.8 °F /  0.4 °C 23.4 °F /  -4.8 °C 30.16in /  1021.2hPa Calm     68% 0.00in /  0mm
04:19 32.8 °F /  0.4 °C 23.4 °F /  -4.8 °C 30.15in /  1020.9hPa Calm     68% 0.00in /  0mm
04:24 32.7 °F /  0.4 °C 23.3 °F /  -4.8 °C 30.15in /  1020.9hPa Calm     68% 0.00in /  0mm
04:29 33.2 °F /  0.7 °C 23.4 °F /  -4.8 °C 30.15in /  1020.9hPa Calm     67% 0.00in /  0mm
04:34 33.4 °F /  0.8 °C 23.6 °F /  -4.7 °C 30.14in /  1020.5hPa Calm     67% 0.00in /  0mm
04:39 33.7 °F /  0.9 °C 23.5 °F /  -4.7 °C 30.14in /  1020.5hPa Calm     66% 0.00in /  0mm
04:44 33.8 °F /  1 °C 23.6 °F /  -4.7 °C 30.14in /  1020.5hPa Calm     66% 0.00in /  0mm
04:49 34.0 °F /  1.1 °C 23.5 °F /  -4.7 °C 30.14in /  1020.5hPa Calm     65% 0.00in /  0mm
04:54 33.5 °F /  0.8 °C 23.4 °F /  -4.8 °C 30.14in /  1020.5hPa Calm     66% 0.00in /  0mm
04:59 33.2 °F /  0.7 °C 23.4 °F /  -4.8 °C 30.14in /  1020.5hPa Calm     67% 0.00in /  0mm
05:04 32.7 °F /  0.4 °C 23.3 °F /  -4.8 °C 30.14in /  1020.5hPa Calm     68% 0.00in /  0mm
05:09 32.3 °F /  0.2 °C 22.9 °F /  -5.1 °C 30.14in /  1020.5hPa Calm     68% 0.00in /  0mm
05:14 32.0 °F /  0 °C 23.0 °F /  -5 °C 30.14in /  1020.5hPa Calm     69% 0.00in /  0mm
05:19 31.7 °F /  -0.2 °C 23.0 °F /  -5 °C 30.13in /  1020.2hPa Calm     70% 0.00in /  0mm
05:24 32.0 °F /  0 °C 23.3 °F /  -4.8 °C 30.13in /  1020.2hPa Calm     70% 0.00in /  0mm
05:29 32.2 °F /  0.1 °C 23.2 °F /  -4.9 °C 30.12in /  1019.9hPa Calm     69% 0.00in /  0mm
05:34 32.0 °F /  0 °C 23.0 °F /  -5 °C 30.12in /  1019.9hPa Calm     69% 0.00in /  0mm
05:39 32.5 °F /  0.3 °C 23.8 °F /  -4.6 °C 30.11in /  1019.5hPa Calm     70% 0.00in /  0mm
05:44 33.3 °F /  0.7 °C 23.9 °F /  -4.5 °C 30.11in /  1019.5hPa Calm   2.0mph /  3.2km/h 68% 0.00in /  0mm
05:49 34.0 °F /  1.1 °C 24.2 °F /  -4.3 °C 30.11in /  1019.5hPa Calm   3.0mph /  4.8km/h 67% 0.00in /  0mm
05:54 34.4 °F /  1.3 °C 24.2 °F /  -4.3 °C 30.11in /  1019.5hPa Calm   2.0mph /  3.2km/h 66% 0.00in /  0mm
05:59 35.0 °F /  1.7 °C 24.4 °F /  -4.2 °C 30.10in /  1019.2hPa Calm   3.0mph /  4.8km/h 65% 0.00in /  0mm
06:04 35.2 °F /  1.8 °C 24.2 °F /  -4.3 °C 30.10in /  1019.2hPa Calm   2.0mph /  3.2km/h 64% 0.00in /  0mm
06:09 35.4 °F /  1.9 °C 24.4 °F /  -4.2 °C 30.11in /  1019.5hPa Calm   2.0mph /  3.2km/h 64% 0.00in /  0mm
06:14 35.1 °F /  1.7 °C 24.5 °F /  -4.2 °C 30.11in /  1019.5hPa Calm     65% 0.00in /  0mm
06:19 34.7 °F /  1.5 °C 24.5 °F /  -4.2 °C 30.12in /  1019.9hPa Calm     66% 0.00in /  0mm
06:24 34.7 °F /  1.5 °C 24.1 °F /  -4.4 °C 30.11in /  1019.5hPa Calm     65% 0.00in /  0mm
06:29 34.6 °F /  1.4 °C 24.4 °F /  -4.2 °C 30.11in /  1019.5hPa Calm     66% 0.00in /  0mm
06:34 35.0 °F /  1.7 °C 24.8 °F /  -4 °C 30.10in /  1019.2hPa East 1.0mph /  1.6km/h 3.0mph /  4.8km/h 66% 0.00in /  0mm
06:39 35.8 °F /  2.1 °C 24.8 °F /  -4 °C 30.10in /  1019.2hPa East 1.0mph /  1.6km/h 3.0mph /  4.8km/h 64% 0.00in /  0mm
06:44 35.9 °F /  2.2 °C 24.9 °F /  -3.9 °C 30.10in /  1019.2hPa Calm   1.0mph /  1.6km/h 64% 0.00in /  0mm
06:49 35.5 °F /  1.9 °C 24.5 °F /  -4.2 °C 30.09in /  1018.8hPa Calm   2.0mph /  3.2km/h 64% 0.00in /  0mm
06:54 35.9 °F /  2.2 °C 24.5 °F /  -4.2 °C 30.09in /  1018.8hPa Calm   2.0mph /  3.2km/h 63% 0.00in /  0mm
06:59 36.0 °F /  2.2 °C 24.6 °F /  -4.1 °C 30.09in /  1018.8hPa Calm   1.0mph /  1.6km/h 63% 0.00in /  0mm
07:04 35.4 °F /  1.9 °C 25.2 °F /  -3.8 °C 30.09in /  1018.8hPa Calm     66% 0.00in /  0mm
07:09 35.3 °F /  1.8 °C 25.1 °F /  -3.8 °C 30.09in /  1018.8hPa Calm     66% 0.00in /  0mm
07:14 35.3 °F /  1.8 °C 25.1 °F /  -3.8 °C 30.09in /  1018.8hPa Calm     66% 0.00in /  0mm
07:19 35.7 °F /  2.1 °C 25.4 °F /  -3.7 °C 30.09in /  1018.8hPa Calm     66% 0.00in /  0mm
07:24 35.6 °F /  2 °C 25.7 °F /  -3.5 °C 30.09in /  1018.8hPa Calm     67% 0.00in /  0mm
07:29 35.2 °F /  1.8 °C 25.7 °F /  -3.5 °C 30.10in /  1019.2hPa Calm     68% 0.00in /  0mm
07:34 34.9 °F /  1.6 °C 25.4 °F /  -3.7 °C 30.10in /  1019.2hPa Calm     68% 0.00in /  0mm
07:39 34.8 °F /  1.6 °C 25.3 °F /  -3.7 °C 30.10in /  1019.2hPa Calm     68% 0.00in /  0mm
07:44 34.8 °F /  1.6 °C 25.7 °F /  -3.5 °C 30.09in /  1018.8hPa Calm     69% 0.00in /  0mm
07:49 34.8 °F /  1.6 °C 25.7 °F /  -3.5 °C 30.09in /  1018.8hPa Calm     69% 0.00in /  0mm
07:54 36.2 °F /  2.3 °C 26.3 °F /  -3.2 °C 30.09in /  1018.8hPa SE 3.0mph /  4.8km/h 3.0mph /  4.8km/h 67% 0.00in /  0mm
07:59 37.7 °F /  3.2 °C 26.2 °F /  -3.2 °C 30.08in /  1018.5hPa Calm   3.0mph /  4.8km/h 63% 0.00in /  0mm
08:04 38.2 °F /  3.4 °C 26.3 °F /  -3.2 °C 30.08in /  1018.5hPa Calm   3.0mph /  4.8km/h 62% 0.00in /  0mm
08:09 38.7 °F /  3.7 °C 26.8 °F /  -2.9 °C 30.07in /  1018.2hPa ESE 1.0mph /  1.6km/h 4.0mph /  6.4km/h 62% 0.00in /  0mm
08:14 39.0 °F /  3.9 °C 26.7 °F /  -2.9 °C 30.07in /  1018.2hPa ESE 1.0mph /  1.6km/h 4.0mph /  6.4km/h 61% 0.00in /  0mm
08:19 39.6 °F /  4.2 °C 26.8 °F /  -2.9 °C 30.07in /  1018.2hPa SE 2.0mph /  3.2km/h 4.0mph /  6.4km/h 60% 0.00in /  0mm
08:24 40.2 °F /  4.6 °C 27.0 °F /  -2.8 °C 30.08in /  1018.5hPa SE 2.0mph /  3.2km/h 4.0mph /  6.4km/h 59% 0.00in /  0mm
08:29 40.8 °F /  4.9 °C 27.2 °F /  -2.7 °C 30.08in /  1018.5hPa SSE 2.0mph /  3.2km/h 3.0mph /  4.8km/h 58% 0.00in /  0mm
08:34 41.3 °F /  5.2 °C 27.6 °F /  -2.4 °C 30.08in /  1018.5hPa South 1.0mph /  1.6km/h 4.0mph /  6.4km/h 58% 0.00in /  0mm
08:39 42.0 °F /  5.6 °C 27.9 °F /  -2.3 °C 30.07in /  1018.2hPa SSE 2.0mph /  3.2km/h 3.0mph /  4.8km/h 57% 0.00in /  0mm
08:44 42.6 °F /  5.9 °C 27.5 °F /  -2.5 °C 30.08in /  1018.5hPa South 1.0mph /  1.6km/h 4.0mph /  6.4km/h 55% 0.00in /  0mm
08:49 42.8 °F /  6 °C 28.2 °F /  -2.1 °C 30.08in /  1018.5hPa SSE 1.0mph /  1.6km/h 3.0mph /  4.8km/h 56% 0.00in /  0mm
08:54 43.3 °F /  6.3 °C 27.8 °F /  -2.3 °C 30.07in /  1018.2hPa SE 2.0mph /  3.2km/h 4.0mph /  6.4km/h 54% 0.00in /  0mm
08:59 43.5 °F /  6.4 °C 27.9 °F /  -2.3 °C 30.06in /  1017.8hPa Calm   5.0mph /  8km/h 54% 0.00in /  0mm
09:04 44.3 °F /  6.8 °C 28.2 °F /  -2.1 °C 30.06in /  1017.8hPa SSE 2.0mph /  3.2km/h 3.0mph /  4.8km/h 53% 0.00in /  0mm
09:09 44.9 °F /  7.2 °C 28.3 °F /  -2.1 °C 30.06in /  1017.8hPa SSE 2.0mph /  3.2km/h 3.0mph /  4.8km/h 52% 0.00in /  0mm
09:14 44.9 °F /  7.2 °C 27.8 °F /  -2.3 °C 30.05in /  1017.5hPa SSE 2.0mph /  3.2km/h 5.0mph /  8km/h 51% 0.00in /  0mm
09:19 45.0 °F /  7.2 °C 28.4 °F /  -2 °C 30.06in /  1017.8hPa SE 2.0mph /  3.2km/h 5.0mph /  8km/h 52% 0.00in /  0mm
09:24 45.4 °F /  7.4 °C 28.3 °F /  -2.1 °C 30.06in /  1017.8hPa SE 1.0mph /  1.6km/h 4.0mph /  6.4km/h 51% 0.00in /  0mm
09:29 45.9 °F /  7.7 °C 28.3 °F /  -2.1 °C 30.06in /  1017.8hPa South 1.0mph /  1.6km/h 4.0mph /  6.4km/h 50% 0.00in /  0mm
09:34 46.4 °F /  8 °C 29.2 °F /  -1.6 °C 30.06in /  1017.8hPa South 2.0mph /  3.2km/h 4.0mph /  6.4km/h 51% 0.00in /  0mm
09:39 47.1 °F /  8.4 °C 29.4 °F /  -1.4 °C 30.06in /  1017.8hPa SSW 3.0mph /  4.8km/h 5.0mph /  8km/h 50% 0.00in /  0mm
09:44 47.5 °F /  8.6 °C 29.3 °F /  -1.5 °C 30.05in /  1017.5hPa SSE 4.0mph /  6.4km/h 6.0mph /  9.7km/h 49% 0.00in /  0mm
09:49 47.9 °F /  8.8 °C 29.6 °F /  -1.3 °C 30.05in /  1017.5hPa South 3.0mph /  4.8km/h 6.0mph /  9.7km/h 49% 0.00in /  0mm
09:54 48.2 °F /  9 °C 30.4 °F /  -0.9 °C 30.04in /  1017.2hPa South 4.0mph /  6.4km/h 5.0mph /  8km/h 50% 0.00in /  0mm
09:59 48.8 °F /  9.3 °C 30.0 °F /  -1.1 °C 30.05in /  1017.5hPa SSW 2.0mph /  3.2km/h 6.0mph /  9.7km/h 48% 0.00in /  0mm
10:04 49.3 °F /  9.6 °C 30.4 °F /  -0.9 °C 30.04in /  1017.2hPa SSW 1.0mph /  1.6km/h 8.0mph /  12.9km/h 48% 0.00in /  0mm
10:09 49.6 °F /  9.8 °C 30.2 °F /  -1 °C 30.04in /  1017.2hPa SSE 4.0mph /  6.4km/h 7.0mph /  11.3km/h 47% 0.00in /  0mm
10:14 49.9 °F /  9.9 °C 30.5 °F /  -0.8 °C 30.03in /  1016.8hPa South 2.0mph /  3.2km/h 8.0mph /  12.9km/h 47% 0.00in /  0mm
10:19 50.3 °F /  10.2 °C 30.8 °F /  -0.7 °C 30.03in /  1016.8hPa SSE 3.0mph /  4.8km/h 7.0mph /  11.3km/h 47% 0.00in /  0mm
10:24 50.7 °F /  10.4 °C 30.7 °F /  -0.7 °C 30.03in /  1016.8hPa South 3.0mph /  4.8km/h 7.0mph /  11.3km/h 46% 0.00in /  0mm
10:29 51.3 °F /  10.7 °C 31.7 °F /  -0.2 °C 30.04in /  1017.2hPa SSW 3.0mph /  4.8km/h 7.0mph /  11.3km/h 47% 0.00in /  0mm
10:34 51.9 °F /  11.1 °C 31.2 °F /  -0.4 °C 30.04in /  1017.2hPa SSW 3.0mph /  4.8km/h 7.0mph /  11.3km/h 45% 0.00in /  0mm
10:39 52.5 °F /  11.4 °C 31.2 °F /  -0.4 °C 30.03in /  1016.8hPa South 4.0mph /  6.4km/h 8.0mph /  12.9km/h 44% 0.00in /  0mm
10:44 53.1 °F /  11.7 °C 31.2 °F /  -0.4 °C 30.04in /  1017.2hPa South 5.0mph /  8km/h 8.0mph /  12.9km/h 43% 0.00in /  0mm
10:49 53.5 °F /  11.9 °C 31.0 °F /  -0.6 °C 30.04in /  1017.2hPa SSE 4.0mph /  6.4km/h 9.0mph /  14.5km/h 42% 0.00in /  0mm
10:54 53.8 °F /  12.1 °C 31.2 °F /  -0.4 °C 30.03in /  1016.8hPa SSW 5.0mph /  8km/h 13.0mph /  20.9km/h 42% 0.00in /  0mm
10:59 53.9 °F /  12.2 °C 31.3 °F /  -0.4 °C 30.03in /  1016.8hPa SSW 5.0mph /  8km/h 13.0mph /  20.9km/h 42% 0.00in /  0mm
11:04 53.9 °F /  12.2 °C 31.3 °F /  -0.4 °C 30.03in /  1016.8hPa SW 4.0mph /  6.4km/h 11.0mph /  17.7km/h 42% 0.00in /  0mm
11:09 54.1 °F /  12.3 °C 30.9 °F /  -0.6 °C 30.03in /  1016.8hPa South 6.0mph /  9.7km/h 10.0mph /  16.1km/h 41% 0.00in /  0mm
11:14 54.4 °F /  12.4 °C 31.8 °F /  -0.1 °C 30.03in /  1016.8hPa SSE 7.0mph /  11.3km/h 9.0mph /  14.5km/h 42% 0.00in /  0mm
11:19 54.4 °F /  12.4 °C 31.8 °F /  -0.1 °C 30.03in /  1016.8hPa SSW 9.0mph /  14.5km/h 11.0mph /  17.7km/h 42% 0.00in /  0mm
11:24 54.7 °F /  12.6 °C 31.4 °F /  -0.3 °C 30.02in /  1016.5hPa SW 7.0mph /  11.3km/h 15.0mph /  24.1km/h 41% 0.00in /  0mm
11:29 54.9 °F /  12.7 °C 31.6 °F /  -0.2 °C 30.02in /  1016.5hPa SSW 7.0mph /  11.3km/h 15.0mph /  24.1km/h 41% 0.00in /  0mm
11:34 55.0 °F /  12.8 °C 31.1 °F /  -0.5 °C 30.01in /  1016.1hPa SSW 7.0mph /  11.3km/h 14.0mph /  22.5km/h 40% 0.00in /  0mm
11:39 55.2 °F /  12.9 °C 31.9 °F /  -0.1 °C 30.01in /  1016.1hPa SSW 7.0mph /  11.3km/h 14.0mph /  22.5km/h 41% 0.00in /  0mm
11:44 55.0 °F /  12.8 °C 31.7 °F /  -0.2 °C 30.01in /  1016.1hPa SSW 7.0mph /  11.3km/h 14.0mph /  22.5km/h 41% 0.00in /  0mm
11:49 55.2 °F /  12.9 °C 32.5 °F /  0.3 °C 30.01in /  1016.1hPa SSW 7.0mph /  11.3km/h 14.0mph /  22.5km/h 42% 0.00in /  0mm
11:54 55.3 °F /  12.9 °C 32.0 °F /  0 °C 30.01in /  1016.1hPa SSW 7.0mph /  11.3km/h 13.0mph /  20.9km/h 41% 0.00in /  0mm
11:59 55.3 °F /  12.9 °C 32.0 °F /  0 °C 30.01in /  1016.1hPa SSW 4.0mph /  6.4km/h 12.0mph /  19.3km/h 41% 0.00in /  0mm
12:04 55.3 °F /  12.9 °C 32.6 °F /  0.3 °C 30.00in /  1015.8hPa South 4.0mph /  6.4km/h 11.0mph /  17.7km/h 42% 0.00in /  0mm
12:09 55.4 °F /  13 °C 32.7 °F /  0.4 °C 30.00in /  1015.8hPa SSW 4.0mph /  6.4km/h 9.0mph /  14.5km/h 42% 0.00in /  0mm
12:14 55.5 °F /  13.1 °C 32.8 °F /  0.4 °C 30.00in /  1015.8hPa SSW 4.0mph /  6.4km/h 12.0mph /  19.3km/h 42% 0.00in /  0mm
12:19 55.7 °F /  13.2 °C 33.5 °F /  0.8 °C 29.99in /  1015.5hPa SSW 3.0mph /  4.8km/h 7.0mph /  11.3km/h 43% 0.00in /  0mm
12:24 56.0 °F /  13.3 °C 33.2 °F /  0.7 °C 29.99in /  1015.5hPa WSW 6.0mph /  9.7km/h 8.0mph /  12.9km/h 42% 0.00in /  0mm
12:29 56.2 °F /  13.4 °C 34.0 °F /  1.1 °C 29.98in /  1015.1hPa South 3.0mph /  4.8km/h 7.0mph /  11.3km/h 43% 0.00in /  0mm
12:34 56.3 °F /  13.5 °C 33.5 °F /  0.8 °C 29.98in /  1015.1hPa South 4.0mph /  6.4km/h 8.0mph /  12.9km/h 42% 0.00in /  0mm
12:39 56.6 °F /  13.7 °C 33.8 °F /  1 °C 29.98in /  1015.1hPa SSW 4.0mph /  6.4km/h 9.0mph /  14.5km/h 42% 0.00in /  0mm
12:44 56.9 °F /  13.8 °C 34.6 °F /  1.4 °C 29.97in /  1014.8hPa SSW 4.0mph /  6.4km/h 11.0mph /  17.7km/h 43% 0.00in /  0mm
12:49 57.3 °F /  14.1 °C 35.0 °F /  1.7 °C 29.97in /  1014.8hPa SSW 4.0mph /  6.4km/h 11.0mph /  17.7km/h 43% 0.00in /  0mm
12:54 57.8 °F /  14.3 °C 35.4 °F /  1.9 °C 29.97in /  1014.8hPa SSW 5.0mph /  8km/h 9.0mph /  14.5km/h 43% 0.00in /  0mm
12:59 58.4 °F /  14.7 °C 35.4 °F /  1.9 °C 29.97in /  1014.8hPa SSW 5.0mph /  8km/h 11.0mph /  17.7km/h 42% 0.00in /  0mm
13:04 58.6 °F /  14.8 °C 36.2 °F /  2.3 °C 29.97in /  1014.8hPa SSW 4.0mph /  6.4km/h 10.0mph /  16.1km/h 43% 0.00in /  0mm
13:09 58.6 °F /  14.8 °C 36.2 °F /  2.3 °C 29.97in /  1014.8hPa SSW 5.0mph /  8km/h 10.0mph /  16.1km/h 43% 0.00in /  0mm
13:14 58.6 °F /  14.8 °C 36.2 °F /  2.3 °C 29.97in /  1014.8hPa SW 3.0mph /  4.8km/h 9.0mph /  14.5km/h 43% 0.00in /  0mm
13:19 58.8 °F /  14.9 °C 36.9 °F /  2.7 °C 29.97in /  1014.8hPa SW 3.0mph /  4.8km/h 7.0mph /  11.3km/h 44% 0.00in /  0mm
13:24 59.4 °F /  15.2 °C 36.9 °F /  2.7 °C 29.97in /  1014.8hPa SSW 7.0mph /  11.3km/h 7.0mph /  11.3km/h 43% 0.00in /  0mm
13:29 59.5 °F /  15.3 °C 37.0 °F /  2.8 °C 29.97in /  1014.8hPa SSW 2.0mph /  3.2km/h 7.0mph /  11.3km/h 43% 0.00in /  0mm
13:34 59.2 °F /  15.1 °C 36.1 °F /  2.3 °C 29.97in /  1014.8hPa SSW 6.0mph /  9.7km/h 13.0mph /  20.9km/h 42% 0.00in /  0mm
13:39 59.0 °F /  15 °C 36.5 °F /  2.5 °C 29.97in /  1014.8hPa SSW 5.0mph /  8km/h 13.0mph /  20.9km/h 43% 0.00in /  0mm
13:44 58.9 °F /  14.9 °C 36.4 °F /  2.4 °C 29.97in /  1014.8hPa SSW 5.0mph /  8km/h 11.0mph /  17.7km/h 43% 0.00in /  0mm
13:49 59.1 °F /  15.1 °C 36.6 °F /  2.6 °C 29.96in /  1014.4hPa SSW 5.0mph /  8km/h 9.0mph /  14.5km/h 43% 0.00in /  0mm
13:54 59.3 °F /  15.2 °C 36.8 °F /  2.7 °C 29.96in /  1014.4hPa SSW 5.0mph /  8km/h 9.0mph /  14.5km/h 43% 0.00in /  0mm
13:59 59.5 °F /  15.3 °C 37.0 °F /  2.8 °C 29.95in /  1014.1hPa SSW 5.0mph /  8km/h 10.0mph /  16.1km/h 43% 0.00in /  0mm
14:04 59.6 °F /  15.3 °C 37.1 °F /  2.8 °C 29.95in /  1014.1hPa South 1.0mph /  1.6km/h 8.0mph /  12.9km/h 43% 0.00in /  0mm
14:09 59.7 °F /  15.4 °C 37.2 °F /  2.9 °C 29.94in /  1013.8hPa SSW 6.0mph /  9.7km/h 8.0mph /  12.9km/h 43% 0.00in /  0mm
14:14 59.7 °F /  15.4 °C 37.2 °F /  2.9 °C 29.95in /  1014.1hPa SSW 5.0mph /  8km/h 11.0mph /  17.7km/h 43% 0.00in /  0mm
14:19 59.9 °F /  15.5 °C 37.3 °F /  2.9 °C 29.95in /  1014.1hPa South 8.0mph /  12.9km/h 10.0mph /  16.1km/h 43% 0.00in /  0mm
14:24 60.1 °F /  15.6 °C 37.5 °F /  3.1 °C 29.95in /  1014.1hPa South 5.0mph /  8km/h 8.0mph /  12.9km/h 43% 0.00in /  0mm
14:29 60.2 °F /  15.7 °C 37.6 °F /  3.1 °C 29.94in /  1013.8hPa South 3.0mph /  4.8km/h 7.0mph /  11.3km/h 43% 0.00in /  0mm
14:34 60.3 °F /  15.7 °C 37.7 °F /  3.2 °C 29.94in /  1013.8hPa SW 3.0mph /  4.8km/h 6.0mph /  9.7km/h 43% 0.00in /  0mm
14:39 60.2 °F /  15.7 °C 37.0 °F /  2.8 °C 29.93in /  1013.4hPa SSW 4.0mph /  6.4km/h 11.0mph /  17.7km/h 42% 0.00in /  0mm
14:44 60.1 °F /  15.6 °C 37.5 °F /  3.1 °C 29.93in /  1013.4hPa South 5.0mph /  8km/h 11.0mph /  17.7km/h 43% 0.00in /  0mm
14:49 60.1 °F /  15.6 °C 36.9 °F /  2.7 °C 29.93in /  1013.4hPa SSW 4.0mph /  6.4km/h 10.0mph /  16.1km/h 42% 0.00in /  0mm
14:54 59.9 °F /  15.5 °C 36.7 °F /  2.6 °C 29.93in /  1013.4hPa SSW 5.0mph /  8km/h 12.0mph /  19.3km/h 42% 0.00in /  0mm
14:59 59.7 °F /  15.4 °C 37.7 °F /  3.2 °C 29.93in /  1013.4hPa SSW 5.0mph /  8km/h 12.0mph /  19.3km/h 44% 0.00in /  0mm
15:04 59.6 °F /  15.3 °C 37.6 °F /  3.1 °C 29.93in /  1013.4hPa SSW 4.0mph /  6.4km/h 10.0mph /  16.1km/h 44% 0.00in /  0mm
15:09 59.3 °F /  15.2 °C 37.4 °F /  3 °C 29.92in /  1013.1hPa South 6.0mph /  9.7km/h 9.0mph /  14.5km/h 44% 0.00in /  0mm
15:14 59.1 °F /  15.1 °C 37.2 °F /  2.9 °C 29.93in /  1013.4hPa South 5.0mph /  8km/h 9.0mph /  14.5km/h 44% 0.00in /  0mm
15:19 59.0 °F /  15 °C 37.1 °F /  2.8 °C 29.93in /  1013.4hPa South 4.0mph /  6.4km/h 9.0mph /  14.5km/h 44% 0.00in /  0mm
15:24 58.9 °F /  14.9 °C 37.0 °F /  2.8 °C 29.93in /  1013.4hPa South 5.0mph /  8km/h 8.0mph /  12.9km/h 44% 0.00in /  0mm
15:29 58.8 °F /  14.9 °C 36.3 °F /  2.4 °C 29.93in /  1013.4hPa SW 5.0mph /  8km/h 10.0mph /  16.1km/h 43% 0.00in /  0mm
15:34 58.7 °F /  14.8 °C 36.8 °F /  2.7 °C 29.94in /  1013.8hPa SW 4.0mph /  6.4km/h 9.0mph /  14.5km/h 44% 0.00in /  0mm
15:39 58.6 °F /  14.8 °C 36.7 °F /  2.6 °C 29.94in /  1013.8hPa South 6.0mph /  9.7km/h 13.0mph /  20.9km/h 44% 0.00in /  0mm
15:44 58.5 °F /  14.7 °C 37.2 °F /  2.9 °C 29.95in /  1014.1hPa SW 5.0mph /  8km/h 13.0mph /  20.9km/h 45% 0.00in /  0mm
15:49 58.4 °F /  14.7 °C 36.6 °F /  2.6 °C 29.95in /  1014.1hPa SW 5.0mph /  8km/h 11.0mph /  17.7km/h 44% 0.00in /  0mm
15:54 58.2 °F /  14.6 °C 36.9 °F /  2.7 °C 29.94in /  1013.8hPa SSW 4.0mph /  6.4km/h 10.0mph /  16.1km/h 45% 0.00in /  0mm
15:59 58.0 °F /  14.4 °C 36.8 °F /  2.7 °C 29.95in /  1014.1hPa SW 4.0mph /  6.4km/h 10.0mph /  16.1km/h 45% 0.00in /  0mm
16:04 57.8 °F /  14.3 °C 36.6 °F /  2.6 °C 29.94in /  1013.8hPa SW 5.0mph /  8km/h 14.0mph /  22.5km/h 45% 0.00in /  0mm
16:09 57.6 °F /  14.2 °C 37.0 °F /  2.8 °C 29.94in /  1013.8hPa SSW 6.0mph /  9.7km/h 14.0mph /  22.5km/h 46% 0.00in /  0mm
16:14 57.2 °F /  14 °C 37.7 °F /  3.2 °C 29.94in /  1013.8hPa SW 5.0mph /  8km/h 11.0mph /  17.7km/h 48% 0.00in /  0mm
16:19 56.9 °F /  13.8 °C 36.9 °F /  2.7 °C 29.94in /  1013.8hPa SW 5.0mph /  8km/h 7.0mph /  11.3km/h 47% 0.00in /  0mm
16:24 56.6 °F /  13.7 °C 38.2 °F /  3.4 °C 29.95in /  1014.1hPa SW 7.0mph /  11.3km/h 9.0mph /  14.5km/h 50% 0.00in /  0mm
16:29 56.3 °F /  13.5 °C 37.9 °F /  3.3 °C 29.95in /  1014.1hPa SW 4.0mph /  6.4km/h 11.0mph /  17.7km/h 50% 0.00in /  0mm
16:34 55.7 °F /  13.2 °C 38.8 °F /  3.8 °C 29.95in /  1014.1hPa WSW 4.0mph /  6.4km/h 9.0mph /  14.5km/h 53% 0.00in /  0mm
16:39 55.0 °F /  12.8 °C 40.0 °F /  4.4 °C 29.95in /  1014.1hPa SSW 4.0mph /  6.4km/h 6.0mph /  9.7km/h 57% 0.00in /  0mm
16:44 54.1 °F /  12.3 °C 40.9 °F /  4.9 °C 29.95in /  1014.1hPa SW 4.0mph /  6.4km/h 6.0mph /  9.7km/h 61% 0.01in /  0.25mm
16:49 53.1 °F /  11.7 °C 41.6 °F /  5.3 °C 29.96in /  1014.4hPa SW 3.0mph /  4.8km/h 6.0mph /  9.7km/h 65% 0.01in /  0.25mm
16:54 52.0 °F /  11.1 °C 41.4 °F /  5.2 °C 29.96in /  1014.4hPa WSW 3.0mph /  4.8km/h 6.0mph /  9.7km/h 67% 0.02in /  0.51mm
16:59 51.0 °F /  10.6 °C 41.2 °F /  5.1 °C 29.97in /  1014.8hPa WSW 3.0mph /  4.8km/h 8.0mph /  12.9km/h 69% 0.03in /  0.76mm
17:04 50.0 °F /  10 °C 40.6 °F /  4.8 °C 29.97in /  1014.8hPa WSW 4.0mph /  6.4km/h 8.0mph /  12.9km/h 70% 0.03in /  0.76mm
17:09 49.1 °F /  9.5 °C 40.8 °F /  4.9 °C 29.97in /  1014.8hPa WSW 4.0mph /  6.4km/h 8.0mph /  12.9km/h 73% 0.04in /  1.02mm
17:14 48.3 °F /  9.1 °C 40.7 °F /  4.8 °C 29.97in /  1014.8hPa WSW 3.0mph /  4.8km/h 7.0mph /  11.3km/h 75% 0.04in /  1.02mm
17:19 47.6 °F /  8.7 °C 40.7 °F /  4.8 °C 29.96in /  1014.4hPa WSW 2.0mph /  3.2km/h 5.0mph /  8km/h 77% 0.05in /  1.27mm
17:24 47.2 °F /  8.4 °C 40.7 °F /  4.8 °C 29.96in /  1014.4hPa SW 3.0mph /  4.8km/h 4.0mph /  6.4km/h 78% 0.05in /  1.27mm
17:29 46.7 °F /  8.2 °C 40.5 °F /  4.7 °C 29.96in /  1014.4hPa SW 1.0mph /  1.6km/h 3.0mph /  4.8km/h 79% 0.05in /  1.27mm
17:34 46.5 °F /  8.1 °C 41.0 °F /  5 °C 29.96in /  1014.4hPa SW 1.0mph /  1.6km/h 3.0mph /  4.8km/h 81% 0.05in /  1.27mm
17:39 46.4 °F /  8 °C 40.9 °F /  4.9 °C 29.96in /  1014.4hPa SW 2.0mph /  3.2km/h 5.0mph /  8km/h 81% 0.05in /  1.27mm
17:44 46.2 °F /  7.9 °C 41.0 °F /  5 °C 29.96in /  1014.4hPa SSW 2.0mph /  3.2km/h 6.0mph /  9.7km/h 82% 0.05in /  1.27mm
17:49 45.9 °F /  7.7 °C 40.7 °F /  4.8 °C 29.96in /  1014.4hPa SSW 1.0mph /  1.6km/h 6.0mph /  9.7km/h 82% 0.05in /  1.27mm
17:54 45.9 °F /  7.7 °C 41.0 °F /  5 °C 29.96in /  1014.4hPa SW 1.0mph /  1.6km/h 3.0mph /  4.8km/h 83% 0.04in /  1.02mm
17:59 45.7 °F /  7.6 °C 40.8 °F /  4.9 °C 29.96in /  1014.4hPa SW 2.0mph /  3.2km/h 3.0mph /  4.8km/h 83% 0.03in /  0.76mm
18:04 45.7 °F /  7.6 °C 41.1 °F /  5.1 °C 29.97in /  1014.8hPa West 2.0mph /  3.2km/h 3.0mph /  4.8km/h 84% 0.03in /  0.76mm
18:09 45.7 °F /  7.6 °C 41.1 °F /  5.1 °C 29.99in /  1015.5hPa West 2.0mph /  3.2km/h 5.0mph /  8km/h 84% 0.02in /  0.51mm
18:14 45.7 °F /  7.6 °C 41.1 °F /  5.1 °C 29.97in /  1014.8hPa West 2.0mph /  3.2km/h 5.0mph /  8km/h 84% 0.02in /  0.51mm
18:19 45.9 °F /  7.7 °C 41.3 °F /  5.2 °C 29.97in /  1014.8hPa SW 3.0mph /  4.8km/h 7.0mph /  11.3km/h 84% 0.01in /  0.25mm
18:24 46.1 °F /  7.8 °C 41.2 °F /  5.1 °C 29.97in /  1014.8hPa SW 3.0mph /  4.8km/h 7.0mph /  11.3km/h 83% 0.01in /  0.25mm
18:29 46.2 °F /  7.9 °C 41.3 °F /  5.2 °C 29.97in /  1014.8hPa SW 2.0mph /  3.2km/h 6.0mph /  9.7km/h 83% 0.01in /  0.25mm
18:34 46.2 °F /  7.9 °C 41.3 °F /  5.2 °C 29.97in /  1014.8hPa SW 1.0mph /  1.6km/h 3.0mph /  4.8km/h 83% 0.01in /  0.25mm
18:39 46.2 °F /  7.9 °C 41.3 °F /  5.2 °C 29.97in /  1014.8hPa SW 1.0mph /  1.6km/h 3.0mph /  4.8km/h 83% 0.01in /  0.25mm
18:44 46.1 °F /  7.8 °C 41.2 °F /  5.1 °C 29.97in /  1014.8hPa SW 1.0mph /  1.6km/h 3.0mph /  4.8km/h 83% 0.00in /  0mm
18:49 46.0 °F /  7.8 °C 41.1 °F /  5.1 °C 29.97in /  1014.8hPa SSW 2.0mph /  3.2km/h 4.0mph /  6.4km/h 83% 0.00in /  0mm
18:54 46.0 °F /  7.8 °C 41.4 °F /  5.2 °C 29.97in /  1014.8hPa SSW 2.0mph /  3.2km/h 4.0mph /  6.4km/h 84% 0.00in /  0mm
18:59 46.0 °F /  7.8 °C 41.4 °F /  5.2 °C 29.96in /  1014.4hPa SW 1.0mph /  1.6km/h 3.0mph /  4.8km/h 84% 0.00in /  0mm
19:04 46.0 °F /  7.8 °C 41.4 °F /  5.2 °C 29.96in /  1014.4hPa Calm   2.0mph /  3.2km/h 84% 0.00in /  0mm
19:09 46.0 °F /  7.8 °C 41.4 °F /  5.2 °C 29.96in /  1014.4hPa SW 2.0mph /  3.2km/h 2.0mph /  3.2km/h 84% 0.00in /  0mm
19:14 46.1 °F /  7.8 °C 41.5 °F /  5.3 °C 29.96in /  1014.4hPa SW 1.0mph /  1.6km/h 4.0mph /  6.4km/h 84% 0.00in /  0mm
19:19 46.2 °F /  7.9 °C 41.9 °F /  5.5 °C 29.96in /  1014.4hPa SW 1.0mph /  1.6km/h 4.0mph /  6.4km/h 85% 0.00in /  0mm
19:24 46.3 °F /  7.9 °C 42.0 °F /  5.6 °C 29.96in /  1014.4hPa SW 1.0mph /  1.6km/h 3.0mph /  4.8km/h 85% 0.00in /  0mm
19:29 46.5 °F /  8.1 °C 42.2 °F /  5.7 °C 29.97in /  1014.8hPa SW 2.0mph /  3.2km/h 3.0mph /  4.8km/h 85% 0.00in /  0mm
19:34 46.5 °F /  8.1 °C 42.2 °F /  5.7 °C 29.97in /  1014.8hPa SW 2.0mph /  3.2km/h 4.0mph /  6.4km/h 85% 0.00in /  0mm
19:39 46.7 °F /  8.2 °C 42.4 °F /  5.8 °C 29.97in /  1014.8hPa Calm   4.0mph /  6.4km/h 85% 0.00in /  0mm
19:44 46.8 °F /  8.2 °C 42.5 °F /  5.8 °C 29.97in /  1014.8hPa SW 1.0mph /  1.6km/h 4.0mph /  6.4km/h 85% 0.00in /  0mm
19:49 47.0 °F /  8.3 °C 43.0 °F /  6.1 °C 29.97in /  1014.8hPa SW 1.0mph /  1.6km/h 3.0mph /  4.8km/h 86% 0.00in /  0mm
19:54 47.0 °F /  8.3 °C 42.7 °F /  5.9 °C 29.97in /  1014.8hPa SSW 3.0mph /  4.8km/h 4.0mph /  6.4km/h 85% 0.00in /  0mm
19:59 46.9 °F /  8.3 °C 42.6 °F /  5.9 °C 29.97in /  1014.8hPa SW 2.0mph /  3.2km/h 6.0mph /  9.7km/h 85% 0.00in /  0mm
20:04 46.8 °F /  8.2 °C 42.5 °F /  5.8 °C 29.97in /  1014.8hPa SW 1.0mph /  1.6km/h 6.0mph /  9.7km/h 85% 0.00in /  0mm
20:09 46.6 °F /  8.1 °C 42.3 °F /  5.7 °C 29.97in /  1014.8hPa SSW 1.0mph /  1.6km/h 3.0mph /  4.8km/h 85% 0.00in /  0mm
20:14 46.3 °F /  7.9 °C 42.0 °F /  5.6 °C 29.97in /  1014.8hPa SSW 2.0mph /  3.2km/h 4.0mph /  6.4km/h 85% 0.00in /  0mm
20:19 46.0 °F /  7.8 °C 42.0 °F /  5.6 °C 29.97in /  1014.8hPa SSW 2.0mph /  3.2km/h 4.0mph /  6.4km/h 86% 0.00in /  0mm
20:24 45.9 °F /  7.7 °C 41.9 °F /  5.5 °C 29.97in /  1014.8hPa SSW 2.0mph /  3.2km/h 4.0mph /  6.4km/h 86% 0.00in /  0mm
20:29 45.7 °F /  7.6 °C 41.8 °F /  5.4 °C 29.97in /  1014.8hPa SSW 3.0mph /  4.8km/h 5.0mph /  8km/h 86% 0.00in /  0mm
20:34 45.6 °F /  7.6 °C 41.7 °F /  5.4 °C 29.97in /  1014.8hPa South 3.0mph /  4.8km/h 5.0mph /  8km/h 86% 0.00in /  0mm
20:39 45.6 °F /  7.6 °C 42.0 °F /  5.6 °C 29.97in /  1014.8hPa SSW 2.0mph /  3.2km/h 4.0mph /  6.4km/h 87% 0.00in /  0mm
20:44 45.7 °F /  7.6 °C 42.1 °F /  5.6 °C 29.97in /  1014.8hPa SSW 2.0mph /  3.2km/h 4.0mph /  6.4km/h 87% 0.00in /  0mm
20:49 45.5 °F /  7.5 °C 41.9 °F /  5.5 °C 29.97in /  1014.8hPa SSW 2.0mph /  3.2km/h 4.0mph /  6.4km/h 87% 0.00in /  0mm
20:54 45.7 °F /  7.6 °C 42.1 °F /  5.6 °C 29.97in /  1014.8hPa SSW 3.0mph /  4.8km/h 4.0mph /  6.4km/h 87% 0.00in /  0mm
20:59 45.7 °F /  7.6 °C 42.1 °F /  5.6 °C 29.97in /  1014.8hPa South 3.0mph /  4.8km/h 4.0mph /  6.4km/h 87% 0.00in /  0mm
21:04 45.7 °F /  7.6 °C 42.1 °F /  5.6 °C 29.97in /  1014.8hPa South 3.0mph /  4.8km/h 5.0mph /  8km/h 87% 0.00in /  0mm
21:09 45.7 °F /  7.6 °C 42.1 °F /  5.6 °C 29.97in /  1014.8hPa South 2.0mph /  3.2km/h 4.0mph /  6.4km/h 87% 0.00in /  0mm
21:14 45.7 °F /  7.6 °C 42.3 °F /  5.7 °C 29.98in /  1015.1hPa SW 3.0mph /  4.8km/h 5.0mph /  8km/h 88% 0.00in /  0mm
21:19 45.7 °F /  7.6 °C 42.1 °F /  5.6 °C 29.98in /  1015.1hPa SSW 3.0mph /  4.8km/h 6.0mph /  9.7km/h 87% 0.00in /  0mm
21:24 45.7 °F /  7.6 °C 42.1 °F /  5.6 °C 29.98in /  1015.1hPa SSW 3.0mph /  4.8km/h 6.0mph /  9.7km/h 87% 0.00in /  0mm
21:29 45.7 °F /  7.6 °C 42.1 °F /  5.6 °C 29.98in /  1015.1hPa SSW 3.0mph /  4.8km/h 5.0mph /  8km/h 87% 0.00in /  0mm
21:34 45.7 °F /  7.6 °C 42.3 °F /  5.7 °C 29.98in /  1015.1hPa South 2.0mph /  3.2km/h 6.0mph /  9.7km/h 88% 0.00in /  0mm
21:39 45.7 °F /  7.6 °C 42.3 °F /  5.7 °C 29.98in /  1015.1hPa SW 2.0mph /  3.2km/h 6.0mph /  9.7km/h 88% 0.00in /  0mm
21:44 45.7 °F /  7.6 °C 42.3 °F /  5.7 °C 29.98in /  1015.1hPa SSW 2.0mph /  3.2km/h 6.0mph /  9.7km/h 88% 0.00in /  0mm
21:49 45.8 °F /  7.7 °C 42.4 °F /  5.8 °C 29.98in /  1015.1hPa SW 2.0mph /  3.2km/h 6.0mph /  9.7km/h 88% 0.00in /  0mm
21:54 45.7 °F /  7.6 °C 42.3 °F /  5.7 °C 29.98in /  1015.1hPa SW 3.0mph /  4.8km/h 5.0mph /  8km/h 88% 0.00in /  0mm
21:59 45.8 °F /  7.7 °C 42.4 °F /  5.8 °C 29.98in /  1015.1hPa SSW 3.0mph /  4.8km/h 6.0mph /  9.7km/h 88% 0.00in /  0mm
22:04 45.8 °F /  7.7 °C 42.4 °F /  5.8 °C 29.97in /  1014.8hPa SSW 3.0mph /  4.8km/h 6.0mph /  9.7km/h 88% 0.00in /  0mm
22:09 45.9 °F /  7.7 °C 42.5 °F /  5.8 °C 29.97in /  1014.8hPa SSW 1.0mph /  1.6km/h 4.0mph /  6.4km/h 88% 0.00in /  0mm
22:14 46.0 °F /  7.8 °C 42.6 °F /  5.9 °C 29.97in /  1014.8hPa SW 2.0mph /  3.2km/h 5.0mph /  8km/h 88% 0.00in /  0mm
22:19 46.0 °F /  7.8 °C 42.6 °F /  5.9 °C 29.97in /  1014.8hPa SSW 4.0mph /  6.4km/h 4.0mph /  6.4km/h 88% 0.00in /  0mm
22:24 46.1 °F /  7.8 °C 42.7 °F /  5.9 °C 29.97in /  1014.8hPa SSW 2.0mph /  3.2km/h 4.0mph /  6.4km/h 88% 0.00in /  0mm
22:29 46.1 °F /  7.8 °C 42.7 °F /  5.9 °C 29.97in /  1014.8hPa West 1.0mph /  1.6km/h 3.0mph /  4.8km/h 88% 0.00in /  0mm
22:34 46.2 °F /  7.9 °C 42.8 °F /  6 °C 29.97in /  1014.8hPa Calm   2.0mph /  3.2km/h 88% 0.00in /  0mm
22:39 46.2 °F /  7.9 °C 42.8 °F /  6 °C 29.97in /  1014.8hPa Calm     88% 0.00in /  0mm
22:44 46.1 °F /  7.8 °C 42.7 °F /  5.9 °C 29.97in /  1014.8hPa Calm   2.0mph /  3.2km/h 88% 0.00in /  0mm
22:49 46.1 °F /  7.8 °C 42.7 °F /  5.9 °C 29.97in /  1014.8hPa Calm     88% 0.00in /  0mm
22:54 46.1 °F /  7.8 °C 42.7 °F /  5.9 °C 29.96in /  1014.4hPa Calm     88% 0.00in /  0mm
22:59 46.1 °F /  7.8 °C 42.7 °F /  5.9 °C 29.97in /  1014.8hPa Calm     88% 0.00in /  0mm
23:04 46.1 °F /  7.8 °C 42.7 °F /  5.9 °C 29.96in /  1014.4hPa Calm     88% 0.00in /  0mm
23:09 46.0 °F /  7.8 °C 42.6 °F /  5.9 °C 29.97in /  1014.8hPa Calm     88% 0.00in /  0mm
23:14 46.1 °F /  7.8 °C 42.7 °F /  5.9 °C 29.96in /  1014.4hPa Calm     88% 0.00in /  0mm
23:19 46.2 °F /  7.9 °C 42.8 °F /  6 °C 29.96in /  1014.4hPa Calm     88% 0.00in /  0mm
23:24 46.2 °F /  7.9 °C 42.8 °F /  6 °C 29.96in /  1014.4hPa Calm     88% 0.00in /  0mm
23:29 46.3 °F /  7.9 °C 42.9 °F /  6.1 °C 29.96in /  1014.4hPa Calm     88% 0.00in /  0mm
23:34 46.3 °F /  7.9 °C 42.9 °F /  6.1 °C 29.96in /  1014.4hPa Calm     88% 0.00in /  0mm
23:39 46.3 °F /  7.9 °C 42.9 °F /  6.1 °C 29.96in /  1014.4hPa Calm     88% 0.00in /  0mm
23:44 46.2 °F /  7.9 °C 42.8 °F /  6 °C 29.97in /  1014.8hPa Calm     88% 0.00in /  0mm
23:49 46.1 °F /  7.8 °C 42.7 °F /  5.9 °C 29.96in /  1014.4hPa Calm     88% 0.00in /  0mm
23:54 46.1 °F /  7.8 °C 42.7 °F /  5.9 °C 29.96in /  1014.4hPa Calm     88% 0.00in /  0mm
23:59 46.1 °F /  7.8 °C 42.7 °F /  5.9 °C 29.95in /  1014.1hPa Calm     88% 0.00in /  0mm
Buffalo, New York, USA
Compliments of Weather Underground - 2.5 mb